Time;durP1;ratioP1;P1;durP2;ratioP2;P2;SDS_P1;SDS_P2;PMS_P1;PMS_P2;Temp;Humidity;BMP_temperature;BMP_pressure;BME280_temperature;BME280_humidity;BME280_pressure;Samples;Min_cycle;Max_cycle;Signal;HPM_P1;HPM_P2
2023/10/01 06:15:56;;;;;;;;;;;;;;;;;;5266135;22;19925;-73
2023/10/01 06:18:24;;;;;;;;;;;;;;;;;;5053905;28;20313;-73
2023/10/01 06:20:53;;;;;;;;;;;;;;;;;;5053715;28;19979;-70
2023/10/01 06:23:20;;;;;;;;;;;;;;;;;;5053200;28;20023;-69
2023/10/01 06:25:51;;;;;;;;;;;;;;;;;;5053533;28;19925;-71
2023/10/01 06:28:20;;;;;;;;;;;;;;;;;;5093064;22;19979;-74
2023/10/01 06:30:48;;;;;;;;;;;;;;;;;;5053540;28;19971;-74
2023/10/01 06:33:25;;;;;;;;;;;;;;;;;;5053975;28;19929;-74
2023/10/01 06:36:15;;;;;;;;;;;;;;;;;;5056339;28;20382;-74
2023/10/01 06:38:43;;;;;;;;;;;;;;;;;;5057368;28;20020;-74
2023/10/01 06:41:13;;;;;;;;;;;;;;;;;;5057165;28;19924;-75
2023/10/01 06:43:48;;;;;;;;;;;;;;;;;;5056955;28;19925;-75
2023/10/01 06:46:15;;;;;;;;;;;;;;;;;;5057230;28;20024;-75
2023/10/01 06:48:42;;;;;;;;;;;;;;;;;;5056615;28;20354;-75
2023/10/01 06:51:09;;;;;;;;;;;;;;;;;;5057513;28;19925;-74
2023/10/01 06:53:45;;;;;;;;;;;;;;;;;;5057502;28;19924;-75
2023/10/01 06:56:14;;;;;;;;;;;;;;;;;;5057495;28;19928;-75
2023/10/01 06:58:41;;;;;;;;;;;;;;;;;;5056671;28;19976;-76
2023/10/01 07:01:34;;;;;;;;;;;;;;;;;;5056578;28;20309;-77
2023/10/01 07:03:56;;;;;;;;;;;;;;;;;;5056194;28;20015;-75
2023/10/01 07:06:23;;;;;;;;;;;;;;;;;;5056558;28;19925;-75
2023/10/01 07:08:50;;;;;;;;;;;;;;;;;;5056497;28;19925;-76
2023/10/01 07:11:18;;;;;;;;;;;;;;;;;;5056557;28;19925;-76
2023/10/01 07:13:47;;;;;;;;;;;;;;;;;;5056890;28;19978;-74
2023/10/01 07:16:16;;;;;;;;;;;;;;;;;;5056869;28;19932;-75
2023/10/01 07:18:43;;;;;;;;;;;;;;;;;;5056402;28;19925;-75
2023/10/01 07:21:11;;;;;;;;;;;;;;;;;;5056319;28;19924;-75
2023/10/01 07:23:38;;;;;;;;;;;;;;;;;;5056224;28;19932;-75
2023/10/01 07:26:12;;;;;;;;;;;;;;;;;;5056308;28;19925;-77
2023/10/01 07:28:41;;;;;;;;;;;;;;;;;;5055936;28;19925;-76
2023/10/01 07:31:08;;;;;;;;;;;;;;;;;;5056256;28;20023;-75
2023/10/01 07:33:35;;;;;;;;;;;;;;;;;;5056140;28;19925;-75
2023/10/01 07:36:03;;;;;;;;;;;;;;;;;;5055998;28;19935;-77
2023/10/01 07:38:30;;;;;;;;;;;;;;;;;;5056120;28;19972;-72
2023/10/01 07:41:07;;;;;;;;;;;;;;;;;;5055771;28;19925;-73
2023/10/01 07:43:34;;;;;;;;;;;;;;;;;;5055918;28;19968;-74
2023/10/01 07:46:02;;;;;;;;;;;;;;;;;;5054907;28;20019;-73
2023/10/01 07:48:29;;;;;;;;;;;;;;;;;;5055789;28;19925;-72
2023/10/01 07:50:56;;;;;;;;;;;;;;;;;;5055649;28;19925;-73
2023/10/01 07:53:23;;;;;;;;;;;;;;;;;;5055626;28;19925;-73
2023/10/01 07:55:50;;;;;;;;;;;;;;;;;;5055546;28;19925;-73
2023/10/01 08:01:36;;;;;;;;;;;;;;;;;;5042382;28;19943;-73
2023/10/01 08:03:55;;;;;;;;;;;;;;;;;;5055293;28;19925;-73
2023/10/01 08:06:29;;;;;;;;;;;;;;;;;;5055579;28;19924;-73
2023/10/01 08:08:57;;;;;;;;;;;;;;;;;;5055129;28;19925;-73
2023/10/01 08:14:09;;;;;;;;;;;;;;;;;;5055179;28;19936;-75
2023/10/01 08:16:47;;;;;;;;;;;;;;;;;;5055135;28;19925;-75
2023/10/01 08:19:13;;;;;;;;;;;;;;;;;;5055026;28;20336;-74
2023/10/01 08:21:48;;;;;;;;;;;;;;;;;;5055248;28;19944;-74
2023/10/01 08:24:18;;;;;;;;;;;;;;;;;;5055274;28;19925;-74
2023/10/01 08:26:49;;;;;;;;;;;;;;;;;;5055018;28;19921;-74
2023/10/01 08:29:15;;;;;;;;;;;;;;;;;;5055133;28;19979;-74
2023/10/01 08:32:08;;;;;;;;;;;20.40;99.90;;;;;;5055275;28;19932;-71
2023/10/01 08:34:40;;;;;;;;;;;20.70;99.90;;;;;;5054841;28;20027;-71
2023/10/01 08:37:07;;;;;;;;;;;20.00;99.90;;;;;;5054600;28;19927;-70
2023/10/01 08:39:47;;;;;;;;;;;19.60;99.90;;;;;;5054879;28;19929;-71
2023/10/01 08:42:16;;;;;;;;;;;19.40;99.90;;;;;;5054871;28;19921;-70
2023/10/01 08:44:46;;;;;;;;;;;19.40;99.90;;;;;;5054512;28;19928;-71
2023/10/01 08:47:27;;;;;;;;;;;19.30;99.90;;;;;;5057457;28;19925;-71
2023/10/01 08:49:55;;;;;;;;;;;19.30;99.90;;;;;;5054551;28;19924;-71
2023/10/01 08:52:26;;;;;;;;;;;19.30;99.90;;;;;;5054553;28;19928;-71
2023/10/01 08:54:54;;;;;;;;;;;19.20;99.90;;;;;;5054821;28;19977;-71
2023/10/01 08:57:36;;;;;;;;;;;19.10;99.90;;;;;;5054351;28;19984;-71
2023/10/01 09:00:17;;;;;;;;;;;19.00;99.90;;;;;;5054412;28;19924;-72
2023/10/01 09:02:49;;;;;;;;;;;18.90;99.90;;;;;;5054225;28;19963;-72
2023/10/01 09:05:23;;;;;;;;;;;18.90;99.90;;;;;;5054439;28;19924;-72
2023/10/01 09:07:50;;;;;;;;;;;18.80;99.90;;;;;;5054327;28;19929;-72
2023/10/01 09:10:19;;;;;;;;;;;18.80;99.90;;;;;;5054635;28;19925;-72
2023/10/01 09:12:49;;;;;;;;;;;18.90;99.90;;;;;;5055456;28;19925;-72
2023/10/01 09:15:27;;;;;;;;;;;18.90;99.90;;;;;;5055545;28;19929;-73
2023/10/01 09:17:58;;;;;;;;;;;18.90;99.90;;;;;;5055557;28;19931;-70
2023/10/01 09:20:38;;;;;;;;;;;18.90;99.90;;;;;;5055435;28;19925;-70
2023/10/01 09:23:05;;;;;;;;;;;18.90;99.90;;;;;;5056110;28;19925;-69
2023/10/01 09:25:34;;;;;;;;;;;19.00;99.90;;;;;;5055944;28;19925;-72
2023/10/01 09:28:04;;;;;;;;;;;19.00;99.90;;;;;;5056197;28;20392;-72
2023/10/01 09:30:34;;;;;;;;;;;19.00;99.90;;;;;;5056993;28;19931;-72
2023/10/01 09:33:05;;;;;;;;;;;19.00;99.90;;;;;;5055847;28;19925;-72
2023/10/01 09:35:42;;;;;;;;;;;19.00;99.90;;;;;;5055265;28;20052;-72
2023/10/01 09:38:11;;;;;;;;;;;19.00;99.90;;;;;;5056502;28;19925;-72
2023/10/01 09:40:38;;;;;;;;;;;19.00;99.90;;;;;;5057423;28;20290;-71
2023/10/01 09:43:05;;;;;;;;;;;19.10;99.90;;;;;;5056104;28;19947;-71
2023/10/01 09:45:37;;;;;;;;;;;19.20;99.90;;;;;;5055398;28;19925;-71
2023/10/01 09:48:09;;;;;;;;;;;19.20;99.90;;;;;;5055891;28;19925;-71
2023/10/01 09:50:39;;;;;;;;;;;19.20;99.90;;;;;;5055148;28;19925;-71
2023/10/01 09:53:13;;;;;;;;;;;19.20;99.90;;;;;;5055008;28;20046;-71
2023/10/01 09:55:47;;;;;;;;;;;19.30;99.90;;;;;;5054883;28;19925;-72
2023/10/01 09:58:24;;;;;;;;;;;19.30;99.90;;;;;;5055045;28;20012;-71
2023/10/01 10:00:51;;;;;;;;;;;19.30;99.90;;;;;;5054808;28;19924;-72
2023/10/01 10:03:20;;;;;;;;;;;19.30;99.90;;;;;;5054627;28;19947;-72
2023/10/01 10:05:47;;;;;;;;;;;19.30;99.90;;;;;;5054964;28;19925;-71
2023/10/01 10:08:15;;;;;;;;;;;19.40;99.90;;;;;;5055571;28;20310;-72
2023/10/01 10:10:48;;;;;;;;;;;19.40;99.90;;;;;;5058585;28;19971;-71
2023/10/01 10:13:33;;;;;;;;;;;19.40;99.90;;;;;;5059428;28;19928;-71
2023/10/01 10:16:00;;;;;;;;;;;19.50;99.90;;;;;;5059346;28;19924;-71
2023/10/01 10:18:32;;;;;;;;;;;19.60;99.90;;;;;;5058860;28;19929;-72
2023/10/01 10:21:00;;;;;;;;;;;19.60;99.90;;;;;;5058862;28;19933;-72
2023/10/01 10:23:32;;;;;;;;;;;19.70;99.90;;;;;;5058897;28;19925;-72
2023/10/01 10:26:12;;;;;;;;;;;19.70;99.90;;;;;;5058317;28;19924;-72
2023/10/01 10:28:52;;;;;;;;;;;19.70;99.90;;;;;;5057595;28;19971;-72
2023/10/01 10:34:21;;;;;;;;;;;19.80;99.90;;;;;;5057105;28;19943;-71
2023/10/01 10:36:50;;;;;;;;;;;19.70;99.90;;;;;;5057219;28;20382;-72
2023/10/01 10:39:43;;;;;;;;;;;19.70;99.90;;;;;;5057596;28;19920;-72
2023/10/01 10:42:27;;;;;;;;;;;19.80;99.90;;;;;;5056555;28;20389;-72
2023/10/01 10:45:19;;;;;;;;;;;19.80;99.90;;;;;;5057889;28;19972;-71
2023/10/01 10:47:58;;;;;;;;;;;19.90;99.90;;;;;;5065867;28;19964;-72
2023/10/01 10:50:46;;;;;;;;;;;19.90;99.90;;;;;;5076194;28;19984;-72
2023/10/01 10:53:19;;;;;;;;;;;20.00;99.90;;;;;;5059158;28;19928;-72
2023/10/01 10:55:52;;;;;;;;;;;19.90;99.90;;;;;;5056639;28;19929;-73
2023/10/01 10:58:19;;;;;;;;;;;19.90;99.90;;;;;;5056697;28;19921;-71
2023/10/01 11:00:47;;;;;;;;;;;19.90;99.90;;;;;;5056743;28;19931;-72
2023/10/01 11:03:13;;;;;;;;;;;19.90;99.90;;;;;;5056664;28;19935;-72
2023/10/01 11:05:49;;;;;;;;;;;19.90;99.90;;;;;;5056712;28;19924;-72
2023/10/01 11:08:25;;;;;;;;;;;19.90;99.90;;;;;;5056685;28;19929;-72
2023/10/01 11:10:54;;;;;;;;;;;20.00;99.90;;;;;;5056549;28;19976;-72
2023/10/01 11:13:36;;;;;;;;;;;20.00;99.90;;;;;;5056430;28;19931;-72
2023/10/01 11:16:13;;;;;;;;;;;20.00;99.90;;;;;;5056585;28;19928;-72
2023/10/01 11:18:41;;;;;;;;;;;20.00;99.90;;;;;;5056468;28;19925;-72
2023/10/01 11:21:11;;;;;;;;;;;20.00;99.90;;;;;;5055132;28;19924;-72
2023/10/01 11:23:39;;;;;;;;;;;20.00;99.90;;;;;;5056158;28;19955;-72
2023/10/01 11:26:06;;;;;;;;;;;20.00;99.90;;;;;;5056246;28;19925;-72
2023/10/01 11:28:41;;;;;;;;;;;20.00;99.90;;;;;;5055707;28;19933;-72
2023/10/01 11:31:21;;;;;;;;;;;20.00;99.90;;;;;;5056041;28;19925;-72
2023/10/01 11:33:57;;;;;;;;;;;20.00;99.90;;;;;;5056728;28;19931;-73
2023/10/01 11:36:24;;;;;;;;;;;20.10;99.90;;;;;;5057078;28;19932;-73
2023/10/01 11:38:52;;;;;;;;;;;20.10;99.90;;;;;;5056909;28;19925;-73
2023/10/01 11:41:38;;;;;;;;;;;20.10;99.90;;;;;;5056831;28;19925;-72
2023/10/01 11:44:06;;;;;;;;;;;20.10;99.90;;;;;;5057336;28;19925;-73
2023/10/01 11:46:34;;;;;;;;;;;20.10;99.90;;;;;;5056401;28;19964;-73
2023/10/01 11:49:15;;;;;;;;;;;20.10;99.90;;;;;;5056549;28;19925;-72
2023/10/01 11:51:43;;;;;;;;;;;20.10;99.90;;;;;;5056740;28;20362;-72
2023/10/01 11:54:13;;;;;;;;;;;20.20;99.90;;;;;;5056105;28;19932;-72
2023/10/01 11:56:44;;;;;;;;;;;20.20;99.90;;;;;;5057103;28;20039;-72
2023/10/01 11:59:17;;;;;;;;;;;20.20;99.90;;;;;;5057224;28;20472;-73
2023/10/01 12:01:48;;;;;;;;;;;20.30;99.90;;;;;;5057477;28;19929;-73
2023/10/01 12:04:21;;;;;;;;;;;20.30;99.90;;;;;;5056754;28;19935;-73
2023/10/01 12:06:49;;;;;;;;;;;20.30;99.90;;;;;;5057189;28;19966;-73
2023/10/01 12:09:18;;;;;;;;;;;20.30;99.90;;;;;;5056768;28;19929;-73
2023/10/01 12:12:03;;;;;;;;;;;20.30;99.90;;;;;;5057581;28;19929;-73
2023/10/01 12:14:29;;;;;;;;;;;20.40;99.90;;;;;;5057248;28;20022;-73
2023/10/01 12:16:57;;;;;;;;;;;20.40;99.90;;;;;;5056761;28;20019;-73
2023/10/01 12:19:24;;;;;;;;;;;20.50;99.90;;;;;;5057046;28;19929;-72
2023/10/01 12:22:05;;;;;;;;;;;20.50;99.90;;;;;;5057042;28;19925;-73
2023/10/01 12:24:39;;;;;;;;;;;20.50;99.90;;;;;;5056301;28;19925;-73
2023/10/01 12:27:07;;;;;;;;;;;20.60;99.90;;;;;;5056575;28;19924;-73
2023/10/01 12:29:42;;;;;;;;;;;20.60;99.90;;;;;;5056130;28;19931;-73
2023/10/01 12:32:10;;;;;;;;;;;20.60;99.90;;;;;;5055510;28;20023;-72
2023/10/01 12:34:37;;;;;;;;;;;20.60;99.90;;;;;;5055865;28;19928;-73
2023/10/01 12:37:07;;;;;;;;;;;20.60;99.90;;;;;;5055783;28;19947;-71
2023/10/01 12:39:35;;;;;;;;;;;20.60;99.90;;;;;;5056122;28;19974;-72
2023/10/01 12:42:04;;;;;;;;;;;20.60;99.90;;;;;;5056195;28;19928;-72
2023/10/01 12:44:31;;;;;;;;;;;20.60;99.90;;;;;;5055572;28;19924;-71
2023/10/01 12:47:00;;;;;;;;;;;20.60;99.90;;;;;;5056299;28;20008;-72
2023/10/01 12:49:26;;;;;;;;;;;20.70;99.90;;;;;;5055530;28;19931;-72
2023/10/01 12:51:54;;;;;;;;;;;20.70;99.90;;;;;;5055877;28;19921;-73
2023/10/01 12:54:24;;;;;;;;;;;20.70;99.90;;;;;;5056132;28;20267;-72
2023/10/01 12:57:09;;;;;;;;;;;20.70;99.90;;;;;;5056322;28;20011;-73
2023/10/01 12:59:39;;;;;;;;;;;20.70;99.90;;;;;;5054682;28;19932;-72
2023/10/01 13:02:20;;;;;;;;;;;20.70;99.90;;;;;;5055105;28;20405;-72
2023/10/01 13:04:48;;;;;;;;;;;20.70;99.90;;;;;;5054517;28;19925;-72
2023/10/01 13:07:27;;;;;;;;;;;20.70;99.90;;;;;;5053915;28;20420;-71
2023/10/01 13:09:53;;;;;;;;;;;20.70;99.90;;;;;;5054284;28;20015;-71
2023/10/01 13:12:25;;;;;;;;;;;20.70;99.90;;;;;;5053499;28;21372;-71
2023/10/01 13:17:43;;;;;;;;;;;20.70;99.90;;;;;;5054166;28;20014;-72
2023/10/01 13:20:19;;;;;;;;;;;20.80;99.90;;;;;;5054105;28;19982;-72
2023/10/01 13:22:48;;;;;;;;;;;20.80;99.90;;;;;;5054162;28;19932;-72
2023/10/01 13:25:18;;;;;;;;;;;20.90;99.90;;;;;;5053963;28;19929;-71
2023/10/01 13:27:47;;;;;;;;;;;20.90;99.90;;;;;;5053549;28;19925;-71
2023/10/01 13:30:20;;;;;;;;;;;20.80;99.90;;;;;;5053819;28;19971;-72
2023/10/01 13:33:10;;;;;;;;;;;20.80;99.90;;;;;;5053836;28;19947;-71
2023/10/01 13:35:36;;;;;;;;;;;20.80;99.90;;;;;;5053609;28;19994;-72
2023/10/01 13:38:26;;;;;;;;;;;20.80;99.90;;;;;;5053878;28;19995;-72
2023/10/01 14:11:02;;;;;;;;;;;20.50;99.90;;;;;;5054182;28;20321;-72
2023/10/01 14:13:34;;;;;;;;;;;20.50;99.90;;;;;;5054223;28;19974;-71
2023/10/01 14:16:12;;;;;;;;;;;20.50;99.90;;;;;;5053485;28;19925;-71
2023/10/01 14:18:39;;;;;;;;;;;20.50;99.90;;;;;;5055552;28;19925;-73
2023/10/01 14:21:12;;;;;;;;;;;20.40;99.90;;;;;;5057619;28;19925;-72
2023/10/01 14:23:42;;;;;;;;;;;20.40;99.90;;;;;;5055440;28;19925;-71
2023/10/01 14:26:12;;;;;;;;;;;20.30;99.90;;;;;;5055372;28;19980;-71
2023/10/01 14:28:39;;;;;;;;;;;20.30;99.90;;;;;;5054572;28;19979;-71
2023/10/01 14:31:07;;;;;;;;;;;20.30;99.90;;;;;;5054996;28;19925;-72
2023/10/01 14:33:34;;;;;;;;;;;20.20;99.90;;;;;;5056199;28;19924;-72
2023/10/01 14:36:02;;;;;;;;;;;20.20;99.90;;;;;;5056059;28;19925;-72
2023/10/01 14:38:37;;;;;;;;;;;20.10;99.90;;;;;;5056198;28;20014;-72
2023/10/01 14:41:09;;;;;;;;;;;20.10;99.90;;;;;;5056546;28;19924;-73
2023/10/01 14:43:41;;;;;;;;;;;20.00;99.90;;;;;;5056338;28;19972;-72
2023/10/01 14:46:13;;;;;;;;;;;19.90;99.90;;;;;;5055405;28;19924;-72
2023/10/01 14:48:41;;;;;;;;;;;19.80;99.90;;;;;;5056186;28;19932;-72
2023/10/01 14:51:07;;;;;;;;;;;19.80;99.90;;;;;;5055734;28;19925;-72
2023/10/01 14:53:36;;;;;;;;;;;19.70;99.90;;;;;;5056595;28;20293;-72
2023/10/01 14:56:04;;;;;;;;;;;19.60;99.90;;;;;;5057073;28;20297;-72
2023/10/01 14:58:33;;;;;;;;;;;19.50;99.90;;;;;;5059340;28;19924;-71
2023/10/01 15:00:59;;;;;;;;;;;19.40;99.90;;;;;;5058973;28;19932;-73
2023/10/01 15:03:34;;;;;;;;;;;19.30;99.90;;;;;;5058891;28;19954;-73
2023/10/01 15:06:03;;;;;;;;;;;19.30;99.90;;;;;;5058916;28;19929;-72
2023/10/01 15:08:31;;;;;;;;;;;19.20;99.90;;;;;;5058322;28;20013;-72
2023/10/01 15:10:57;;;;;;;;;;;19.10;99.90;;;;;;5056407;28;19925;-73
2023/10/01 15:13:33;;;;;;;;;;;19.00;99.90;;;;;;5056555;28;19928;-73
2023/10/01 15:16:02;;;;;;;;;;;18.90;99.90;;;;;;5056853;28;19968;-73
2023/10/01 15:18:32;;;;;;;;;;;18.80;99.90;;;;;;5056090;28;20400;-73
2023/10/01 15:21:09;;;;;;;;;;;18.70;99.90;;;;;;5056470;28;19925;-73
2023/10/01 15:23:44;;;;;;;;;;;18.60;99.90;;;;;;5056416;28;19952;-73
2023/10/01 15:26:13;;;;;;;;;;;18.50;99.90;;;;;;5056368;28;19925;-73
2023/10/01 15:28:50;;;;;;;;;;;18.40;99.90;;;;;;5055910;28;20305;-73
2023/10/01 15:31:20;;;;;;;;;;;18.30;99.90;;;;;;5056264;28;19925;-73
2023/10/01 15:34:00;;;;;;;;;;;18.20;99.90;;;;;;5056365;28;20003;-73
2023/10/01 15:36:40;;;;;;;;;;;18.20;99.90;;;;;;5056002;28;19925;-73
2023/10/01 15:39:14;;;;;;;;;;;18.10;99.90;;;;;;5055827;28;20366;-73
2023/10/01 15:41:42;;;;;;;;;;;18.00;99.90;;;;;;5055823;28;20031;-73
2023/10/01 15:44:09;;;;;;;;;;;18.00;99.90;;;;;;5055854;28;20294;-73
2023/10/01 15:46:40;;;;;;;;;;;17.90;99.90;;;;;;5055747;28;19932;-73
2023/10/01 15:49:18;;;;;;;;;;;17.90;99.90;;;;;;5055740;28;20431;-72
2023/10/01 15:51:46;;;;;;;;;;;17.80;99.90;;;;;;5055663;28;20452;-73
2023/10/01 15:54:22;;;;;;;;;;;17.80;99.90;;;;;;5055765;28;19971;-73
2023/10/01 15:56:50;;;;;;;;;;;17.70;99.90;;;;;;5055331;28;20298;-73
2023/10/01 15:59:19;;;;;;;;;;;17.70;99.90;;;;;;5055685;28;19924;-73
2023/10/01 16:01:50;;;;;;;;;;;17.60;99.90;;;;;;5055143;28;19925;-74
2023/10/01 16:04:21;;;;;;;;;;;17.60;99.90;;;;;;5055347;28;19925;-73
2023/10/01 16:06:48;;;;;;;;;;;17.50;99.90;;;;;;5054799;28;19926;-73
2023/10/01 16:09:15;;;;;;;;;;;17.50;99.90;;;;;;5055236;28;19929;-72
2023/10/01 16:11:42;;;;;;;;;;;17.50;99.90;;;;;;5055360;28;19925;-72
2023/10/01 16:14:09;;;;;;;;;;;17.40;99.90;;;;;;5055191;28;19924;-71
2023/10/01 16:16:36;;;;;;;;;;;17.40;99.90;;;;;;5054841;28;19925;-71
2023/10/01 16:19:05;;;;;;;;;;;17.40;99.90;;;;;;5054850;28;19925;-71
2023/10/01 16:21:42;;;;;;;;;;;17.30;99.90;;;;;;5055161;28;20031;-72
2023/10/01 16:24:14;;;;;;;;;;;17.30;99.90;;;;;;5055041;28;20032;-73
2023/10/01 16:26:44;;;;;;;;;;;17.20;99.90;;;;;;5054837;28;19924;-72
2023/10/01 16:29:14;;;;;;;;;;;17.10;99.90;;;;;;5055131;28;19924;-72
2023/10/01 16:31:41;;;;;;;;;;;17.10;99.90;;;;;;5054677;28;20024;-73
2023/10/01 16:34:07;;;;;;;;;;;17.00;99.90;;;;;;5054869;28;20333;-72
2023/10/01 16:36:38;;;;;;;;;;;16.90;99.90;;;;;;5054997;28;20381;-72
2023/10/01 16:39:12;;;;;;;;;;;16.80;99.90;;;;;;5058420;28;19929;-72
2023/10/01 16:41:41;;;;;;;;;;;16.70;99.90;;;;;;5062968;28;19925;-71
2023/10/01 16:44:09;;;;;;;;;;;16.60;99.90;;;;;;5058895;28;19932;-71
2023/10/01 16:46:35;;;;;;;;;;;16.60;99.90;;;;;;5054406;28;20371;-71
2023/10/01 16:49:03;;;;;;;;;;;16.50;99.90;;;;;;5054722;28;19932;-71
2023/10/01 16:51:34;;;;;;;;;;;16.40;99.90;;;;;;5054655;28;19925;-70
2023/10/01 16:54:03;;;;;;;;;;;16.30;99.90;;;;;;5054630;28;19925;-70
2023/10/01 16:56:29;;;;;;;;;;;16.20;99.90;;;;;;5054575;28;20019;-72
2023/10/01 16:58:57;;;;;;;;;;;16.20;99.90;;;;;;5054544;28;19959;-71
2023/10/01 17:01:25;;;;;;;;;;;16.10;99.90;;;;;;5054365;28;19925;-68
2023/10/01 17:04:02;;;;;;;;;;;16.00;99.90;;;;;;5054357;28;19947;-68
2023/10/01 17:06:29;;;;;;;;;;;15.90;99.90;;;;;;5055170;28;19948;-69
2023/10/01 17:08:56;;;;;;;;;;;15.80;99.90;;;;;;5054033;28;19932;-69
2023/10/01 17:11:25;;;;;;;;;;;15.70;99.90;;;;;;5054023;28;20390;-69
2023/10/01 17:13:52;;;;;;;;;;;15.70;99.90;;;;;;5053885;28;19925;-69
2023/10/01 17:16:19;;;;;;;;;;;15.50;99.90;;;;;;5054314;28;19932;-69
2023/10/01 17:18:48;;;;;;;;;;;15.50;99.90;;;;;;5053770;28;20370;-68
2023/10/01 17:21:17;;;;;;;;;;;15.40;99.90;;;;;;5054071;28;19929;-68
2023/10/01 17:23:45;;;;;;;;;;;15.30;99.90;;;;;;5054097;28;19931;-70
2023/10/01 17:26:13;;;;;;;;;;;15.20;99.90;;;;;;5054083;28;20019;-70
2023/10/01 17:28:52;;;;;;;;;;;15.20;99.90;;;;;;5053570;28;19925;-70
2023/10/01 17:31:18;;;;;;;;;;;15.00;99.90;;;;;;5054107;28;19925;-71
2023/10/01 17:33:46;;;;;;;;;;;15.00;99.90;;;;;;5053974;28;19925;-72
2023/10/01 17:36:14;;;;;;;;;;;14.90;99.90;;;;;;5054069;28;20340;-72
2023/10/01 17:38:40;;;;;;;;;;;14.80;99.90;;;;;;5055060;28;19931;-71
2023/10/01 17:41:18;;;;;;;;;;;14.80;99.90;;;;;;5054072;28;19932;-71
2023/10/01 17:43:54;;;;;;;;;;;14.70;99.90;;;;;;5054003;28;19925;-72
2023/10/01 17:46:25;;;;;;;;;;;14.60;99.90;;;;;;5053340;28;20382;-71
2023/10/01 17:48:55;;;;;;;;;;;14.60;99.90;;;;;;5053419;28;20447;-71
2023/10/01 17:51:25;;;;;;;;;;;14.50;99.90;;;;;;5054834;28;19924;-70
2023/10/01 17:54:05;;;;;;;;;;;14.40;99.90;;;;;;5053677;28;19925;-70
2023/10/01 17:56:35;;;;;;;;;;;14.30;99.90;;;;;;5053236;28;19932;-70
2023/10/01 17:59:03;;;;;;;;;;;14.30;99.90;;;;;;5054052;28;19932;-70
2023/10/01 18:01:31;;;;;;;;;;;14.20;99.90;;;;;;5053847;28;19932;-71
2023/10/01 18:03:59;;;;;;;;;;;14.10;99.90;;;;;;5053726;28;19929;-70
2023/10/01 18:06:29;;;;;;;;;;;14.10;99.90;;;;;;5053502;28;19947;-70
2023/10/01 18:08:57;;;;;;;;;;;14.00;99.90;;;;;;5053365;28;20015;-70
2023/10/01 18:11:24;;;;;;;;;;;14.00;99.90;;;;;;5053666;28;19925;-70
2023/10/01 18:13:56;;;;;;;;;;;13.90;99.90;;;;;;5053675;28;19925;-69
2023/10/01 18:16:25;;;;;;;;;;;13.80;99.90;;;;;;5053434;28;19931;-72
2023/10/01 18:18:53;;;;;;;;;;;13.80;99.90;;;;;;5053771;28;19925;-69
2023/10/01 18:21:21;;;;;;;;;;;13.70;99.90;;;;;;5053191;28;20382;-69
2023/10/01 18:23:47;;;;;;;;;;;13.60;99.90;;;;;;5053390;28;19982;-69
2023/10/01 18:26:18;;;;;;;;;;;13.60;99.90;;;;;;5053364;28;19932;-69
2023/10/01 18:28:46;;;;;;;;;;;13.50;99.90;;;;;;5053102;28;19928;-69
2023/10/01 18:31:16;;;;;;;;;;;13.50;99.90;;;;;;5055514;28;19968;-69
2023/10/01 18:33:45;;;;;;;;;;;13.40;99.90;;;;;;5057351;28;19925;-69
2023/10/01 18:36:19;;;;;;;;;;;13.40;99.90;;;;;;5057985;28;20027;-69
2023/10/01 18:38:46;;;;;;;;;;;13.30;99.90;;;;;;5057145;28;19931;-69
2023/10/01 18:41:20;;;;;;;;;;;13.30;99.90;;;;;;5056967;28;19935;-69
2023/10/01 18:43:46;;;;;;;;;;;13.20;99.90;;;;;;5057296;28;20029;-70
2023/10/01 18:46:13;;;;;;;;;;;13.20;99.90;;;;;;5057109;28;19925;-69
2023/10/01 18:48:40;;;;;;;;;;;13.10;99.90;;;;;;5056968;28;20011;-68
2023/10/01 18:51:07;;;;;;;;;;;13.10;99.90;;;;;;5056785;28;20302;-68
2023/10/01 18:53:37;;;;;;;;;;;13.10;99.90;;;;;;5081004;22;19925;-68
2023/10/01 18:56:06;;;;;;;;;;;13.00;99.90;;;;;;5057022;28;19925;-68
2023/10/01 18:58:34;;;;;;;;;;;13.00;99.90;;;;;;5056667;28;19928;-68
2023/10/01 19:01:01;;;;;;;;;;;12.90;99.90;;;;;;5056727;28;19950;-68
2023/10/01 19:03:28;;;;;;;;;;;12.90;99.90;;;;;;5056389;28;20321;-69
2023/10/01 19:05:59;;;;;;;;;;;12.90;99.90;;;;;;5056605;28;19971;-69
2023/10/01 19:08:26;;;;;;;;;;;12.80;99.90;;;;;;5056409;28;20390;-68
2023/10/01 19:10:54;;;;;;;;;;;12.80;99.90;;;;;;5056576;28;19974;-68
2023/10/01 19:13:21;;;;;;;;;;;12.80;99.90;;;;;;5056553;28;19925;-68
2023/10/01 19:15:47;;;;;;;;;;;12.70;99.90;;;;;;5056546;28;19932;-69
2023/10/01 19:18:14;;;;;;;;;;;12.70;99.90;;;;;;5056564;28;19932;-69
2023/10/01 19:20:40;;;;;;;;;;;12.70;99.90;;;;;;5056433;28;19924;-69
2023/10/01 19:23:07;;;;;;;;;;;12.60;99.90;;;;;;5056470;28;19924;-69
2023/10/01 19:25:37;;;;;;;;;;;12.60;99.90;;;;;;5055968;28;20373;-70
2023/10/01 19:28:08;;;;;;;;;;;12.50;99.90;;;;;;5056570;28;20024;-70
2023/10/01 19:30:36;;;;;;;;;;;12.50;99.90;;;;;;5056212;28;20024;-70
2023/10/01 19:33:03;;;;;;;;;;;12.40;99.90;;;;;;5056679;28;19987;-69
2023/10/01 19:35:32;;;;;;;;;;;12.40;99.90;;;;;;5056114;28;19925;-69
2023/10/01 19:37:59;;;;;;;;;;;12.40;99.90;;;;;;5056151;28;20030;-69
2023/10/01 19:40:26;;;;;;;;;;;12.30;99.90;;;;;;5056162;28;19998;-70
2023/10/01 19:42:55;;;;;;;;;;;12.30;99.90;;;;;;5054862;28;19978;-70
2023/10/01 19:45:24;;;;;;;;;;;12.30;99.90;;;;;;5055834;28;19925;-70
2023/10/01 19:47:51;;;;;;;;;;;12.30;99.90;;;;;;5056020;28;19925;-70
2023/10/01 19:50:35;;;;;;;;;;;12.30;99.90;;;;;;5056079;28;19925;-69
2023/10/01 19:53:15;;;;;;;;;;;12.20;99.90;;;;;;5055343;28;20378;-68
2023/10/01 19:55:42;;;;;;;;;;;12.20;99.90;;;;;;5056024;28;19928;-69
2023/10/01 19:58:14;;;;;;;;;;;12.20;99.90;;;;;;5055825;28;19928;-69
2023/10/01 20:00:45;;;;;;;;;;;12.20;99.90;;;;;;5056002;28;19925;-69
2023/10/01 20:03:11;;;;;;;;;;;12.10;99.90;;;;;;5055676;28;19925;-69
2023/10/01 20:05:39;;;;;;;;;;;12.10;99.90;;;;;;5055276;28;19933;-68
2023/10/01 20:08:06;;;;;;;;;;;12.10;99.90;;;;;;5055570;28;19925;-68
2023/10/01 20:10:33;;;;;;;;;;;12.00;99.90;;;;;;5055577;28;19932;-68
2023/10/01 20:13:00;;;;;;;;;;;12.00;99.90;;;;;;5055459;28;19932;-68
2023/10/01 20:15:28;;;;;;;;;;;12.00;99.90;;;;;;5055555;28;19932;-68
2023/10/01 20:18:01;;;;;;;;;;;11.90;99.90;;;;;;5055254;28;19983;-68
2023/10/01 20:20:31;;;;;;;;;;;11.90;99.90;;;;;;5056786;28;19925;-69
2023/10/01 20:22:58;;;;;;;;;;;11.90;99.90;;;;;;5055795;28;19928;-68
2023/10/01 20:25:28;;;;;;;;;;;11.80;99.90;;;;;;5058205;28;19929;-68
2023/10/01 20:27:57;;;;;;;;;;;11.80;99.90;;;;;;5056148;28;20263;-68
2023/10/01 20:30:24;;;;;;;;;;;11.80;99.90;;;;;;5058265;28;20059;-69
2023/10/01 20:32:51;;;;;;;;;;;11.70;99.90;;;;;;5061999;28;20008;-68
2023/10/01 20:35:19;;;;;;;;;;;11.70;99.90;;;;;;5058883;28;20015;-68
2023/10/01 20:37:47;;;;;;;;;;;11.70;99.90;;;;;;5056459;28;19933;-68
2023/10/01 20:40:14;;;;;;;;;;;11.60;99.90;;;;;;5057651;28;19924;-68
2023/10/01 20:42:41;;;;;;;;;;;11.60;99.90;;;;;;5059556;28;19925;-68
2023/10/01 20:45:19;;;;;;;;;;;11.60;99.90;;;;;;5059578;28;19924;-68
2023/10/01 20:47:47;;;;;;;;;;;11.60;99.90;;;;;;5057572;28;19925;-68
2023/10/01 20:50:30;;;;;;;;;;;11.50;99.90;;;;;;5055356;28;20378;-68
2023/10/01 20:53:00;;;;;;;;;;;11.50;99.90;;;;;;5054538;28;19928;-68
2023/10/01 20:55:32;;;;;;;;;;;11.50;99.90;;;;;;5054777;28;19975;-68
2023/10/01 20:58:03;;;;;;;;;;;11.50;99.90;;;;;;5054796;28;19925;-68
2023/10/01 21:00:37;;;;;;;;;;;11.40;99.90;;;;;;5054723;28;19975;-68
2023/10/01 21:03:05;;;;;;;;;;;11.40;99.90;;;;;;5054944;28;19929;-68
2023/10/01 21:05:33;;;;;;;;;;;11.40;99.90;;;;;;5054498;28;19924;-68
2023/10/01 21:08:12;;;;;;;;;;;11.30;99.90;;;;;;5054340;28;19986;-68
2023/10/01 21:10:41;;;;;;;;;;;11.40;99.90;;;;;;5054462;28;19929;-68
2023/10/01 21:13:08;;;;;;;;;;;11.30;99.90;;;;;;5054427;28;19924;-68
2023/10/01 21:15:36;;;;;;;;;;;11.30;99.90;;;;;;5054385;28;19925;-68
2023/10/01 21:18:05;;;;;;;;;;;11.30;99.90;;;;;;5054266;28;19924;-67
2023/10/01 21:20:32;;;;;;;;;;;11.30;99.90;;;;;;5053978;28;20378;-68
